createdAt,value
2023-04-23T00:03:49.072Z,2.75
2023-04-23T00:07:52.939Z,2.33
2023-04-23T00:11:59.256Z,2.75
2023-04-23T00:16:03.570Z,2.83
2023-04-23T00:20:08.116Z,2.72
2023-04-23T00:24:11.938Z,2.42
2023-04-23T00:28:16.631Z,2.88
2023-04-23T00:32:20.121Z,2.83
2023-04-23T00:36:23.699Z,2.17
2023-04-23T00:40:27.177Z,2.58
2023-04-23T00:44:31.898Z,2.60
2023-04-23T00:48:36.462Z,3.05
2023-04-23T00:52:40.811Z,3.22
2023-04-23T00:56:44.428Z,2.33
2023-04-23T01:00:51.768Z,2.80
2023-04-23T01:04:57.424Z,3.08
2023-04-23T01:09:02.854Z,2.80
2023-04-23T01:13:07.221Z,3.30
2023-04-23T01:17:12.404Z,3.35
2023-04-23T01:21:17.603Z,3.30
2023-04-23T01:25:23.073Z,4.68
2023-04-23T01:29:27.151Z,2.78
2023-04-23T01:33:31.225Z,3.03
2023-04-23T01:37:39.929Z,3.50
2023-04-23T01:41:45.422Z,3.45
2023-04-23T01:45:48.706Z,3.10
2023-04-23T01:49:51.994Z,3.60
2023-04-23T01:53:55.769Z,3.22
2023-04-23T01:58:00.308Z,2.70
2023-04-23T02:02:03.791Z,3.15
2023-04-23T02:06:08.820Z,3.00
2023-04-23T02:10:13.148Z,2.75
2023-04-23T02:14:18.070Z,2.33
2023-04-23T02:18:21.393Z,2.20
2023-04-23T02:22:26.724Z,3.45
2023-04-23T02:26:30.737Z,3.17
2023-04-23T02:30:35.496Z,3.60
2023-04-23T02:34:39.676Z,3.30
2023-04-23T02:38:45.282Z,2.42
2023-04-23T02:42:48.926Z,2.45
2023-04-23T02:46:54.213Z,2.33
2023-04-23T02:50:58.409Z,2.25
2023-04-23T02:55:03.970Z,2.03
2023-04-23T02:59:08.983Z,2.15
2023-04-23T03:03:15.515Z,2.40
2023-04-23T03:07:19.017Z,2.28
2023-04-23T03:11:22.746Z,2.22
2023-04-23T03:15:27.767Z,2.20
2023-04-23T03:19:32.711Z,1.92
2023-04-23T03:23:40.068Z,2.90
2023-04-23T03:27:45.071Z,2.13
2023-04-23T03:31:48.781Z,2.40
2023-04-23T03:35:53.515Z,2.63
2023-04-23T03:39:57.235Z,2.38
2023-04-23T03:44:00.369Z,2.55
2023-04-23T03:48:03.824Z,1.83
2023-04-23T03:52:08.231Z,2.90
2023-04-23T03:56:12.229Z,2.33
2023-04-23T04:00:15.793Z,2.58
2023-04-23T04:04:19.473Z,2.05
2023-04-23T04:08:24.695Z,2.28
2023-04-23T04:12:28.089Z,2.38
2023-04-23T04:16:31.587Z,2.13
2023-04-23T04:20:35.284Z,2.10
2023-04-23T04:24:42.247Z,1.95
2023-04-23T04:28:45.815Z,1.90
2023-04-23T04:32:51.105Z,2.03
2023-04-23T04:36:55.836Z,2.40
2023-04-23T04:41:02.349Z,2.55
2023-04-23T04:45:06.638Z,2.28
2023-04-23T04:49:12.894Z,2.08
2023-04-23T04:53:16.493Z,1.58
2023-04-23T04:57:23.091Z,2.53
2023-04-23T05:01:27.763Z,3.05
2023-04-23T05:05:32.122Z,2.70
2023-04-23T05:09:36.075Z,2.50
2023-04-23T05:13:40.760Z,1.98
2023-04-23T05:17:45.470Z,1.98
2023-04-23T05:21:48.740Z,2.03
2023-04-23T05:25:56.342Z,2.08
2023-04-23T05:30:02.235Z,2.20
2023-04-23T05:34:05.617Z,1.67
2023-04-23T05:38:08.984Z,2.28
2023-04-23T05:42:13.455Z,2.25
2023-04-23T05:46:18.542Z,2.00
2023-04-23T05:50:23.868Z,1.70
2023-04-23T05:54:26.817Z,1.35
2023-04-23T05:58:30.335Z,2.03
2023-04-23T06:02:35.039Z,1.90
2023-04-23T06:06:38.624Z,2.00
2023-04-23T06:10:42.077Z,1.50
2023-04-23T06:14:45.892Z,2.33
2023-04-23T06:18:51.002Z,1.85
2023-04-23T06:22:54.849Z,2.40
2023-04-23T06:26:59.189Z,1.90
2023-04-23T06:31:04.655Z,1.85
2023-04-23T06:35:12.243Z,1.42
2023-04-23T06:39:16.213Z,1.73
2023-04-23T06:43:19.628Z,1.98
2023-04-23T06:47:23.788Z,2.00
2023-04-23T06:51:28.466Z,2.38
2023-04-23T06:55:34.555Z,2.05
2023-04-23T06:59:37.515Z,2.35
2023-04-23T07:03:45.234Z,1.88
2023-04-23T07:07:49.861Z,1.80
2023-04-23T07:11:53.519Z,1.80
2023-04-23T07:15:56.684Z,2.40
2023-04-23T07:20:00.221Z,2.60
2023-04-23T07:24:07.525Z,2.47
2023-04-23T07:28:10.892Z,2.53
2023-04-23T07:32:14.156Z,3.47
2023-04-23T07:36:18.218Z,2.75
2023-04-23T07:40:24.516Z,2.42
2023-04-23T07:44:28.067Z,2.38
2023-04-23T07:48:31.498Z,3.33
2023-04-23T07:52:35.010Z,3.30
2023-04-23T07:56:40.519Z,3.35
2023-04-23T08:00:45.417Z,3.88
2023-04-23T08:04:48.579Z,2.75
2023-04-23T08:08:52.846Z,2.33
2023-04-23T08:12:57.717Z,3.13
2023-04-23T08:17:01.979Z,2.85
2023-04-23T08:21:06.013Z,3.08
2023-04-23T08:25:11.467Z,3.20
2023-04-23T08:29:16.204Z,3.35
2023-04-23T08:33:19.519Z,2.88
2023-04-23T08:37:30.334Z,2.22
2023-04-23T08:41:40.468Z,2.77
2023-04-23T08:45:47.964Z,3.25
2023-04-23T08:49:57.008Z,3.15
2023-04-23T08:54:04.976Z,2.63
2023-04-23T08:58:08.241Z,2.78
2023-04-23T09:02:13.324Z,2.25
2023-04-23T09:06:16.783Z,2.63
2023-04-23T09:10:20.001Z,2.35
2023-04-23T09:14:25.282Z,2.67
2023-04-23T09:18:31.162Z,3.00
2023-04-23T09:22:43.188Z,2.67
2023-04-23T09:26:49.811Z,3.22
2023-04-23T09:30:54.782Z,3.38
2023-04-23T09:34:59.503Z,3.17
2023-04-23T09:39:02.492Z,2.30
2023-04-23T09:43:10.989Z,2.30
2023-04-23T09:47:16.322Z,2.80
2023-04-23T09:51:21.406Z,2.95
2023-04-23T09:55:31.040Z,3.00
2023-04-23T09:59:46.742Z,2.40
2023-04-23T10:03:55.174Z,3.40
2023-04-23T10:08:04.114Z,3.13
2023-04-23T10:12:20.712Z,2.03
2023-04-23T10:16:42.016Z,1.98
2023-04-23T10:20:53.325Z,2.65
2023-04-23T10:24:59.416Z,2.42
2023-04-23T10:29:08.044Z,1.92
2023-04-23T10:33:26.544Z,1.75
2023-04-23T10:37:33.105Z,1.63
2023-04-23T10:41:40.010Z,1.13
2023-04-23T10:45:45.672Z,1.95
2023-04-23T10:49:50.774Z,1.67
2023-04-23T10:53:54.424Z,1.65
2023-04-23T10:58:04.438Z,1.90
2023-04-23T11:02:10.006Z,1.50
2023-04-23T11:06:19.276Z,1.30
2023-04-23T11:10:22.406Z,1.13
2023-04-23T11:14:48.395Z,1.17
2023-04-23T11:19:03.747Z,1.70
2023-04-23T11:23:10.572Z,1.38
2023-04-23T11:27:15.434Z,1.30
2023-04-23T11:31:20.455Z,1.67
2023-04-23T11:35:28.472Z,1.67
2023-04-23T11:39:31.790Z,1.80
2023-04-23T11:43:35.705Z,1.42
2023-04-23T11:47:41.481Z,1.13
2023-04-23T11:51:45.751Z,1.20
2023-04-23T11:55:51.175Z,1.08
2023-04-23T11:59:55.976Z,1.20
2023-04-23T12:04:01.554Z,1.15
2023-04-23T12:08:09.080Z,0.93
2023-04-23T12:12:12.270Z,1.85
2023-04-23T12:16:15.800Z,3.13
2023-04-23T12:20:23.017Z,2.83
2023-04-23T12:24:27.403Z,3.05
2023-04-23T12:28:31.178Z,3.10
2023-04-23T12:32:35.022Z,3.42
2023-04-23T12:36:41.264Z,3.58
2023-04-23T12:40:44.264Z,2.85
2023-04-23T12:44:47.901Z,2.85
2023-04-23T12:48:51.253Z,2.53
2023-04-23T12:52:56.481Z,2.58
2023-04-23T12:57:03.103Z,2.83
2023-04-23T13:01:06.617Z,2.38
2023-04-23T13:05:10.738Z,2.70
2023-04-23T13:09:15.628Z,2.78
2023-04-23T13:13:18.853Z,2.95
2023-04-23T13:17:23.593Z,2.42
2023-04-23T13:21:26.874Z,2.35
2023-04-23T13:25:32.822Z,2.75
2023-04-23T13:29:35.742Z,2.78
2023-04-23T13:33:39.485Z,2.78
2023-04-23T13:37:42.877Z,2.42
2023-04-23T13:41:59.142Z,2.15
2023-04-23T13:46:09.911Z,1.83
2023-04-23T13:50:13.815Z,1.50
2023-04-23T13:54:17.092Z,1.70
2023-04-23T13:58:22.308Z,2.20
2023-04-23T14:02:27.999Z,1.90
2023-04-23T14:06:32.072Z,1.75
2023-04-23T14:10:37.146Z,2.22
2023-04-23T14:14:42.000Z,1.65
2023-04-23T14:18:45.798Z,1.27
2023-04-23T14:22:51.311Z,1.95
2023-04-23T14:26:54.142Z,2.13
2023-04-23T14:30:59.586Z,2.72
2023-04-23T14:35:03.777Z,2.67
2023-04-23T14:39:07.506Z,2.45
2023-04-23T14:43:15.588Z,2.65
2023-04-23T14:47:21.802Z,2.38
2023-04-23T14:51:24.933Z,2.28
2023-04-23T14:55:28.546Z,2.03
2023-04-23T14:59:31.560Z,2.10
2023-04-23T15:03:37.315Z,2.10
2023-04-23T15:07:42.133Z,1.88
2023-04-23T15:11:45.669Z,1.48
2023-04-23T15:16:00.202Z,1.98
2023-04-23T15:20:05.221Z,1.70
2023-04-23T15:24:10.071Z,1.45
2023-04-23T15:28:13.443Z,1.67
2023-04-23T15:32:16.575Z,1.83
2023-04-23T15:36:21.259Z,2.28
2023-04-23T15:40:26.842Z,2.17
2023-04-23T15:44:35.241Z,2.08
2023-04-23T15:48:38.355Z,1.70
2023-04-23T15:52:43.862Z,1.13
2023-04-23T15:56:46.875Z,0.85
2023-04-23T16:00:50.467Z,0.82
2023-04-23T16:04:55.021Z,0.95
2023-04-23T16:08:59.648Z,0.98
2023-04-23T16:13:03.601Z,0.70
2023-04-23T16:17:07.321Z,0.50
2023-04-23T16:21:12.526Z,0.40
2023-04-23T16:25:18.128Z,0.50
2023-04-23T16:29:23.083Z,0.30
2023-04-23T16:33:27.734Z,0.35
2023-04-23T16:37:30.887Z,0.25
2023-04-23T16:41:35.765Z,0.22
2023-04-23T16:45:41.362Z,0.50
2023-04-23T16:49:48.088Z,0.28
2023-04-23T16:53:51.201Z,0.50
2023-04-23T16:57:56.834Z,0.28
2023-04-23T17:01:59.977Z,0.40
2023-04-23T17:06:11.895Z,0.50
2023-04-23T17:10:15.517Z,0.70
2023-04-23T17:14:20.401Z,0.55
2023-04-23T17:18:23.416Z,0.52
2023-04-23T17:22:27.158Z,0.32
2023-04-23T17:26:30.317Z,0.40
2023-04-23T17:30:35.198Z,0.43
2023-04-23T17:34:38.181Z,0.32
2023-04-23T17:38:43.336Z,0.40
2023-04-23T17:42:46.246Z,0.50
2023-04-23T17:46:52.715Z,0.70
2023-04-23T17:50:55.712Z,0.52
2023-04-23T17:55:00.354Z,0.40
2023-04-23T17:59:03.981Z,0.47
2023-04-23T18:03:09.213Z,0.60
2023-04-23T18:07:12.469Z,0.50
2023-04-23T18:11:17.576Z,0.57
2023-04-23T18:15:21.233Z,0.82
2023-04-23T18:19:27.212Z,0.70
2023-04-23T18:23:31.586Z,0.40
2023-04-23T18:27:36.862Z,0.88
2023-04-23T18:31:40.020Z,0.52
2023-04-23T18:35:45.011Z,0.68
2023-04-23T18:39:48.172Z,0.90
2023-04-23T18:43:54.065Z,0.70
2023-04-23T18:48:50.131Z,0.73
2023-04-23T18:53:15.763Z,1.77
2023-04-23T18:57:20.393Z,1.73
2023-04-23T19:01:24.707Z,1.00
2023-04-23T19:05:28.225Z,1.05
2023-04-23T19:09:33.737Z,0.50
2023-04-23T19:13:37.296Z,0.60
2023-04-23T19:17:41.581Z,0.95
2023-04-23T19:21:44.550Z,0.68
2023-04-23T19:25:49.478Z,0.80
2023-04-23T19:29:54.522Z,0.52
2023-04-23T19:33:58.597Z,0.70
2023-04-23T19:38:01.807Z,0.70
2023-04-23T19:42:07.999Z,0.90
2023-04-23T19:46:10.985Z,0.60
2023-04-23T19:50:16.103Z,1.13
2023-04-23T19:54:19.420Z,0.80
2023-04-23T19:58:25.162Z,0.98
2023-04-23T20:02:28.427Z,0.85
2023-04-23T20:06:34.252Z,0.95
2023-04-23T20:10:37.630Z,0.90
2023-04-23T20:14:42.924Z,1.33
2023-04-23T20:18:47.326Z,0.82
2023-04-23T20:22:50.905Z,0.90
2023-04-23T20:26:54.236Z,0.90
2023-04-23T20:30:59.350Z,1.15
2023-04-23T20:35:02.434Z,0.90
2023-04-23T20:39:06.135Z,0.77
2023-04-23T20:43:10.012Z,1.02
2023-04-23T20:47:17.319Z,0.77
2023-04-23T20:51:21.022Z,0.90
2023-04-23T20:55:26.565Z,1.17
2023-04-23T20:59:29.792Z,1.10
2023-04-23T21:03:37.535Z,1.13
2023-04-23T21:07:44.562Z,1.30
2023-04-23T21:11:48.283Z,0.90
2023-04-23T21:15:52.033Z,1.30
2023-04-23T21:19:58.696Z,1.40
2023-04-23T21:24:02.415Z,1.50
2023-04-23T21:28:06.130Z,1.13
2023-04-23T21:32:09.828Z,0.88
2023-04-23T21:36:17.066Z,1.08
2023-04-23T21:40:20.342Z,1.33
2023-04-23T21:44:23.871Z,1.05
2023-04-23T21:48:27.454Z,0.93
2023-04-23T21:52:33.157Z,1.17
2023-04-23T21:56:36.931Z,1.30
2023-04-23T22:04:51.156Z,1.20
2023-04-23T22:08:56.257Z,2.13
2023-04-23T22:13:00.863Z,1.30
2023-04-23T22:17:04.020Z,1.92
2023-04-23T22:21:10.520Z,1.65
2023-04-23T22:25:17.351Z,1.60
2023-04-23T22:29:20.456Z,1.50
2023-04-23T22:33:26.517Z,1.60
2023-04-23T22:37:30.088Z,2.00
2023-04-23T22:41:36.734Z,1.55
2023-04-23T22:45:40.496Z,2.08
2023-04-23T22:49:44.623Z,1.77
2023-04-23T22:53:50.944Z,1.45
2023-04-23T22:57:57.151Z,1.85
2023-04-23T23:02:00.640Z,1.50
2023-04-23T23:06:04.440Z,1.65
2023-04-23T23:10:10.110Z,1.48
2023-04-23T23:14:15.112Z,1.88
2023-04-23T23:18:19.064Z,2.08
2023-04-23T23:22:22.290Z,1.17
2023-04-23T23:26:26.490Z,1.73
2023-04-23T23:30:31.558Z,1.83
2023-04-23T23:34:35.048Z,1.55
2023-04-23T23:38:38.005Z,1.30
2023-04-23T23:42:41.811Z,0.98
2023-04-23T23:46:46.507Z,1.15
2023-04-23T23:50:50.041Z,0.73
2023-04-23T23:54:53.311Z,0.98
2023-04-23T23:58:56.893Z,0.95
